sensor_id;sensor_type;location;lat;lon;timestamp;temperature;humidity
72952;HTU21D;61102;51.956;5.878;2023-05-10T00:00:35;17.63;69.20
72952;HTU21D;61102;51.956;5.878;2023-05-10T00:03:01;17.64;69.36
72952;HTU21D;61102;51.956;5.878;2023-05-10T00:05:31;17.65;69.42
72952;HTU21D;61102;51.956;5.878;2023-05-10T00:07:57;17.66;69.34
72952;HTU21D;61102;51.956;5.878;2023-05-10T00:10:23;17.65;69.29
72952;HTU21D;61102;51.956;5.878;2023-05-10T00:12:50;17.64;69.29
72952;HTU21D;61102;51.956;5.878;2023-05-10T00:15:16;17.66;69.26
72952;HTU21D;61102;51.956;5.878;2023-05-10T00:17:43;17.66;69.27
72952;HTU21D;61102;51.956;5.878;2023-05-10T00:20:09;17.65;69.40
72952;HTU21D;61102;51.956;5.878;2023-05-10T00:22:36;17.64;69.43
72952;HTU21D;61102;51.956;5.878;2023-05-10T00:25:02;17.62;69.44
72952;HTU21D;61102;51.956;5.878;2023-05-10T00:27:29;17.59;69.42
72952;HTU21D;61102;51.956;5.878;2023-05-10T00:29:56;17.54;69.54
72952;HTU21D;61102;51.956;5.878;2023-05-10T00:32:22;17.55;69.50
72952;HTU21D;61102;51.956;5.878;2023-05-10T00:34:48;17.55;69.49
72952;HTU21D;61102;51.956;5.878;2023-05-10T00:37:14;17.55;69.52
72952;HTU21D;61102;51.956;5.878;2023-05-10T00:39:41;17.56;69.47
72952;HTU21D;61102;51.956;5.878;2023-05-10T00:42:07;17.55;69.45
72952;HTU21D;61102;51.956;5.878;2023-05-10T00:44:33;17.56;69.42
72952;HTU21D;61102;51.956;5.878;2023-05-10T00:47:00;17.52;69.42
72952;HTU21D;61102;51.956;5.878;2023-05-10T00:49:26;17.51;69.42
72952;HTU21D;61102;51.956;5.878;2023-05-10T00:51:57;17.49;69.66
72952;HTU21D;61102;51.956;5.878;2023-05-10T00:54:23;17.48;69.41
72952;HTU21D;61102;51.956;5.878;2023-05-10T00:56:51;17.48;69.43
72952;HTU21D;61102;51.956;5.878;2023-05-10T00:59:17;17.52;69.31
72952;HTU21D;61102;51.956;5.878;2023-05-10T01:01:47;17.52;69.45
72952;HTU21D;61102;51.956;5.878;2023-05-10T01:04:14;17.51;69.33
72952;HTU21D;61102;51.956;5.878;2023-05-10T01:06:41;17.55;69.38
72952;HTU21D;61102;51.956;5.878;2023-05-10T01:09:08;17.59;69.41
72952;HTU21D;61102;51.956;5.878;2023-05-10T01:11:35;17.61;69.45
72952;HTU21D;61102;51.956;5.878;2023-05-10T01:14:03;17.63;69.48
72952;HTU21D;61102;51.956;5.878;2023-05-10T01:16:33;17.62;69.66
72952;HTU21D;61102;51.956;5.878;2023-05-10T01:19:01;17.63;69.47
72952;HTU21D;61102;51.956;5.878;2023-05-10T01:24:54;17.69;69.64
72952;HTU21D;61102;51.956;5.878;2023-05-10T01:38:38;17.68;69.86
72952;HTU21D;61102;51.956;5.878;2023-05-10T01:41:31;17.72;69.88
72952;HTU21D;61102;51.956;5.878;2023-05-10T01:44:30;17.69;69.82
72952;HTU21D;61102;51.956;5.878;2023-05-10T01:47:06;17.66;69.81
72952;HTU21D;61102;51.956;5.878;2023-05-10T01:49:43;17.66;69.80
72952;HTU21D;61102;51.956;5.878;2023-05-10T01:52:14;17.69;69.58
72952;HTU21D;61102;51.956;5.878;2023-05-10T01:54:45;17.70;69.65
72952;HTU21D;61102;51.956;5.878;2023-05-10T01:57:16;17.67;69.61
72952;HTU21D;61102;51.956;5.878;2023-05-10T01:59:44;17.66;69.70
72952;HTU21D;61102;51.956;5.878;2023-05-10T02:02:12;17.65;69.65
72952;HTU21D;61102;51.956;5.878;2023-05-10T02:04:40;17.63;69.73
72952;HTU21D;61102;51.956;5.878;2023-05-10T02:07:07;17.63;69.68
72952;HTU21D;61102;51.956;5.878;2023-05-10T02:09:35;17.66;69.57
72952;HTU21D;61102;51.956;5.878;2023-05-10T02:12:06;17.67;69.73
72952;HTU21D;61102;51.956;5.878;2023-05-10T02:14:36;17.66;69.61
72952;HTU21D;61102;51.956;5.878;2023-05-10T02:17:04;17.64;69.54
72952;HTU21D;61102;51.956;5.878;2023-05-10T02:19:32;17.63;69.52
72952;HTU21D;61102;51.956;5.878;2023-05-10T02:21:58;18.07;68.36
72952;HTU21D;61102;51.956;5.878;2023-05-10T02:24:26;17.76;68.89
72952;HTU21D;61102;51.956;5.878;2023-05-10T02:26:54;17.63;69.24
72952;HTU21D;61102;51.956;5.878;2023-05-10T02:29:25;17.61;69.43
72952;HTU21D;61102;51.956;5.878;2023-05-10T02:31:54;17.61;69.58
72952;HTU21D;61102;51.956;5.878;2023-05-10T02:34:23;17.64;69.61
72952;HTU21D;61102;51.956;5.878;2023-05-10T02:36:51;17.65;69.54
72952;HTU21D;61102;51.956;5.878;2023-05-10T02:39:19;17.67;69.49
72952;HTU21D;61102;51.956;5.878;2023-05-10T02:41:47;17.69;69.39
72952;HTU21D;61102;51.956;5.878;2023-05-10T02:44:15;17.69;69.42
72952;HTU21D;61102;51.956;5.878;2023-05-10T02:46:41;17.69;69.32
72952;HTU21D;61102;51.956;5.878;2023-05-10T02:49:07;17.67;69.27
72952;HTU21D;61102;51.956;5.878;2023-05-10T02:51:35;17.64;69.36
72952;HTU21D;61102;51.956;5.878;2023-05-10T02:54:12;17.63;69.55
72952;HTU21D;61102;51.956;5.878;2023-05-10T02:56:50;17.62;69.59
72952;HTU21D;61102;51.956;5.878;2023-05-10T02:59:37;17.64;69.12
72952;HTU21D;61102;51.956;5.878;2023-05-10T03:02:03;17.60;69.23
72952;HTU21D;61102;51.956;5.878;2023-05-10T03:04:30;17.59;69.26
72952;HTU21D;61102;51.956;5.878;2023-05-10T03:06:57;17.59;69.23
72952;HTU21D;61102;51.956;5.878;2023-05-10T03:09:24;17.59;69.17
72952;HTU21D;61102;51.956;5.878;2023-05-10T03:15:03;17.64;69.53
72952;HTU21D;61102;51.956;5.878;2023-05-10T03:18:04;17.60;69.42
72952;HTU21D;61102;51.956;5.878;2023-05-10T03:20:41;17.53;69.31
72952;HTU21D;61102;51.956;5.878;2023-05-10T03:25:46;17.48;69.35
72952;HTU21D;61102;51.956;5.878;2023-05-10T03:28:15;17.45;69.20
72952;HTU21D;61102;51.956;5.878;2023-05-10T03:30:43;17.45;69.31
72952;HTU21D;61102;51.956;5.878;2023-05-10T03:33:11;17.48;69.16
72952;HTU21D;61102;51.956;5.878;2023-05-10T03:35:41;17.52;69.03
72952;HTU21D;61102;51.956;5.878;2023-05-10T03:38:13;17.48;69.24
72952;HTU21D;61102;51.956;5.878;2023-05-10T03:40:40;17.49;69.01
72952;HTU21D;61102;51.956;5.878;2023-05-10T03:43:07;17.44;69.14
72952;HTU21D;61102;51.956;5.878;2023-05-10T03:45:35;17.40;69.18
72952;HTU21D;61102;51.956;5.878;2023-05-10T03:48:02;17.38;69.14
72952;HTU21D;61102;51.956;5.878;2023-05-10T03:50:29;17.38;69.12
72952;HTU21D;61102;51.956;5.878;2023-05-10T03:52:55;17.35;69.13
72952;HTU21D;61102;51.956;5.878;2023-05-10T03:55:21;17.33;69.21
72952;HTU21D;61102;51.956;5.878;2023-05-10T03:57:49;17.33;69.19
72952;HTU21D;61102;51.956;5.878;2023-05-10T04:00:23;17.35;69.09
72952;HTU21D;61102;51.956;5.878;2023-05-10T04:02:53;17.36;69.00
72952;HTU21D;61102;51.956;5.878;2023-05-10T04:05:19;17.33;69.10
72952;HTU21D;61102;51.956;5.878;2023-05-10T04:07:46;17.34;69.15
72952;HTU21D;61102;51.956;5.878;2023-05-10T04:10:13;17.34;69.22
72952;HTU21D;61102;51.956;5.878;2023-05-10T04:12:41;17.34;69.26
72952;HTU21D;61102;51.956;5.878;2023-05-10T04:15:11;17.37;69.02
72952;HTU21D;61102;51.956;5.878;2023-05-10T04:17:37;17.38;68.96
72952;HTU21D;61102;51.956;5.878;2023-05-10T04:20:04;17.36;69.02
72952;HTU21D;61102;51.956;5.878;2023-05-10T04:22:32;17.35;69.04
72952;HTU21D;61102;51.956;5.878;2023-05-10T04:24:58;17.37;68.88
72952;HTU21D;61102;51.956;5.878;2023-05-10T04:27:24;17.38;68.93
72952;HTU21D;61102;51.956;5.878;2023-05-10T04:29:50;17.38;68.87
72952;HTU21D;61102;51.956;5.878;2023-05-10T04:32:16;17.40;68.81
72952;HTU21D;61102;51.956;5.878;2023-05-10T04:34:46;17.39;68.72
72952;HTU21D;61102;51.956;5.878;2023-05-10T04:37:13;17.41;68.64
72952;HTU21D;61102;51.956;5.878;2023-05-10T04:39:39;17.40;68.65
72952;HTU21D;61102;51.956;5.878;2023-05-10T04:42:05;17.36;68.75
72952;HTU21D;61102;51.956;5.878;2023-05-10T04:44:32;17.36;68.79
72952;HTU21D;61102;51.956;5.878;2023-05-10T04:46:58;17.37;68.75
72952;HTU21D;61102;51.956;5.878;2023-05-10T04:49:26;17.40;68.68
72952;HTU21D;61102;51.956;5.878;2023-05-10T04:51:56;17.43;68.64
72952;HTU21D;61102;51.956;5.878;2023-05-10T04:54:22;17.44;68.72
72952;HTU21D;61102;51.956;5.878;2023-05-10T04:56:48;17.46;68.67
72952;HTU21D;61102;51.956;5.878;2023-05-10T04:59:14;17.47;68.65
72952;HTU21D;61102;51.956;5.878;2023-05-10T05:01:40;17.51;68.78
72952;HTU21D;61102;51.956;5.878;2023-05-10T05:04:07;17.50;68.72
72952;HTU21D;61102;51.956;5.878;2023-05-10T05:06:33;17.52;68.71
72952;HTU21D;61102;51.956;5.878;2023-05-10T05:08:59;17.55;68.58
72952;HTU21D;61102;51.956;5.878;2023-05-10T05:11:27;17.54;68.62
72952;HTU21D;61102;51.956;5.878;2023-05-10T05:13:53;17.60;68.53
72952;HTU21D;61102;51.956;5.878;2023-05-10T05:16:19;17.58;68.54
72952;HTU21D;61102;51.956;5.878;2023-05-10T05:18:45;17.56;68.57
72952;HTU21D;61102;51.956;5.878;2023-05-10T05:21:17;17.56;68.85
72952;HTU21D;61102;51.956;5.878;2023-05-10T05:23:43;17.59;68.58
72952;HTU21D;61102;51.956;5.878;2023-05-10T05:26:10;17.61;68.61
72952;HTU21D;61102;51.956;5.878;2023-05-10T05:28:37;17.63;68.60
72952;HTU21D;61102;51.956;5.878;2023-05-10T05:31:07;17.64;68.76
72952;HTU21D;61102;51.956;5.878;2023-05-10T05:33:33;17.65;68.62
72952;HTU21D;61102;51.956;5.878;2023-05-10T05:36:01;17.63;68.76
72952;HTU21D;61102;51.956;5.878;2023-05-10T05:38:28;17.67;68.60
72952;HTU21D;61102;51.956;5.878;2023-05-10T05:40:54;17.70;68.55
72952;HTU21D;61102;51.956;5.878;2023-05-10T05:43:23;17.75;68.56
72952;HTU21D;61102;51.956;5.878;2023-05-10T05:45:52;17.79;68.35
72952;HTU21D;61102;51.956;5.878;2023-05-10T05:48:19;17.81;68.52
72952;HTU21D;61102;51.956;5.878;2023-05-10T05:50:45;17.85;68.53
72952;HTU21D;61102;51.956;5.878;2023-05-10T05:53:12;17.87;68.47
72952;HTU21D;61102;51.956;5.878;2023-05-10T05:55:38;17.90;68.60
72952;HTU21D;61102;51.956;5.878;2023-05-10T05:58:04;17.94;68.52
72952;HTU21D;61102;51.956;5.878;2023-05-10T06:00:31;17.96;68.41
72952;HTU21D;61102;51.956;5.878;2023-05-10T06:02:57;17.97;68.25
72952;HTU21D;61102;51.956;5.878;2023-05-10T06:05:23;17.96;68.16
72952;HTU21D;61102;51.956;5.878;2023-05-10T06:07:49;17.96;68.21
72952;HTU21D;61102;51.956;5.878;2023-05-10T06:10:25;17.96;68.49
72952;HTU21D;61102;51.956;5.878;2023-05-10T06:12:51;17.99;68.13
72952;HTU21D;61102;51.956;5.878;2023-05-10T06:15:18;17.99;68.16
72952;HTU21D;61102;51.956;5.878;2023-05-10T06:17:45;18.04;68.23
72952;HTU21D;61102;51.956;5.878;2023-05-10T06:20:13;18.08;68.19
72952;HTU21D;61102;51.956;5.878;2023-05-10T06:22:39;18.11;68.03
72952;HTU21D;61102;51.956;5.878;2023-05-10T06:25:06;18.10;68.23
72952;HTU21D;61102;51.956;5.878;2023-05-10T06:27:32;18.08;68.24
72952;HTU21D;61102;51.956;5.878;2023-05-10T06:29:58;18.10;68.10
72952;HTU21D;61102;51.956;5.878;2023-05-10T06:32:28;18.07;68.32
72952;HTU21D;61102;51.956;5.878;2023-05-10T06:34:54;18.09;68.13
72952;HTU21D;61102;51.956;5.878;2023-05-10T06:37:20;18.07;68.34
72952;HTU21D;61102;51.956;5.878;2023-05-10T06:39:46;18.03;68.29
72952;HTU21D;61102;51.956;5.878;2023-05-10T06:42:13;18.03;68.29
72952;HTU21D;61102;51.956;5.878;2023-05-10T06:44:39;18.03;68.32
72952;HTU21D;61102;51.956;5.878;2023-05-10T06:47:05;18.04;68.39
72952;HTU21D;61102;51.956;5.878;2023-05-10T06:49:31;18.08;68.25
72952;HTU21D;61102;51.956;5.878;2023-05-10T06:51:58;18.10;67.98
72952;HTU21D;61102;51.956;5.878;2023-05-10T06:54:24;18.08;67.99
72952;HTU21D;61102;51.956;5.878;2023-05-10T06:56:50;18.06;68.04
72952;HTU21D;61102;51.956;5.878;2023-05-10T06:59:29;18.07;68.21
72952;HTU21D;61102;51.956;5.878;2023-05-10T07:01:55;18.05;68.08
72952;HTU21D;61102;51.956;5.878;2023-05-10T07:04:21;18.04;68.17
72952;HTU21D;61102;51.956;5.878;2023-05-10T07:06:47;18.07;68.13
72952;HTU21D;61102;51.956;5.878;2023-05-10T07:09:15;18.11;68.23
72952;HTU21D;61102;51.956;5.878;2023-05-10T07:11:41;18.13;67.92
72952;HTU21D;61102;51.956;5.878;2023-05-10T07:14:08;18.19;68.04
72952;HTU21D;61102;51.956;5.878;2023-05-10T07:16:34;18.20;68.06
72952;HTU21D;61102;51.956;5.878;2023-05-10T07:19:00;18.18;67.96
72952;HTU21D;61102;51.956;5.878;2023-05-10T07:21:26;18.18;67.91
72952;HTU21D;61102;51.956;5.878;2023-05-10T07:23:54;18.17;67.91
72952;HTU21D;61102;51.956;5.878;2023-05-10T07:26:20;18.15;68.04
72952;HTU21D;61102;51.956;5.878;2023-05-10T07:28:47;18.18;68.22
72952;HTU21D;61102;51.956;5.878;2023-05-10T07:31:13;18.18;67.99
72952;HTU21D;61102;51.956;5.878;2023-05-10T07:33:39;18.19;67.90
72952;HTU21D;61102;51.956;5.878;2023-05-10T07:36:06;18.25;68.01
72952;HTU21D;61102;51.956;5.878;2023-05-10T07:38:35;18.36;68.05
72952;HTU21D;61102;51.956;5.878;2023-05-10T07:41:03;18.47;67.98
72952;HTU21D;61102;51.956;5.878;2023-05-10T07:43:29;18.57;67.92
72952;HTU21D;61102;51.956;5.878;2023-05-10T07:45:58;18.63;67.86
72952;HTU21D;61102;51.956;5.878;2023-05-10T07:48:26;18.63;67.77
72952;HTU21D;61102;51.956;5.878;2023-05-10T07:50:52;18.63;67.97
72952;HTU21D;61102;51.956;5.878;2023-05-10T07:53:18;18.68;67.87
72952;HTU21D;61102;51.956;5.878;2023-05-10T07:55:50;18.74;68.02
72952;HTU21D;61102;51.956;5.878;2023-05-10T07:58:16;18.86;67.97
72952;HTU21D;61102;51.956;5.878;2023-05-10T08:00:42;19.02;67.97
72952;HTU21D;61102;51.956;5.878;2023-05-10T08:03:08;19.24;67.39
72952;HTU21D;61102;51.956;5.878;2023-05-10T08:05:35;19.33;66.96
72952;HTU21D;61102;51.956;5.878;2023-05-10T08:08:01;19.42;66.62
72952;HTU21D;61102;51.956;5.878;2023-05-10T08:10:27;19.50;66.80
72952;HTU21D;61102;51.956;5.878;2023-05-10T08:12:54;19.56;67.26
72952;HTU21D;61102;51.956;5.878;2023-05-10T08:15:20;19.79;67.24
72952;HTU21D;61102;51.956;5.878;2023-05-10T08:17:46;19.89;66.76
72952;HTU21D;61102;51.956;5.878;2023-05-10T08:20:12;19.91;66.48
72952;HTU21D;61102;51.956;5.878;2023-05-10T08:22:42;19.97;66.75
72952;HTU21D;61102;51.956;5.878;2023-05-10T08:25:08;20.07;66.69
72952;HTU21D;61102;51.956;5.878;2023-05-10T08:27:35;20.15;66.73
72952;HTU21D;61102;51.956;5.878;2023-05-10T08:30:01;20.25;66.53
72952;HTU21D;61102;51.956;5.878;2023-05-10T08:32:28;20.32;66.40
72952;HTU21D;61102;51.956;5.878;2023-05-10T08:34:55;20.39;66.55
72952;HTU21D;61102;51.956;5.878;2023-05-10T08:37:23;20.43;66.13
72952;HTU21D;61102;51.956;5.878;2023-05-10T08:39:52;20.37;65.67
72952;HTU21D;61102;51.956;5.878;2023-05-10T08:42:21;20.15;65.53
72952;HTU21D;61102;51.956;5.878;2023-05-10T08:44:49;20.00;65.38
72952;HTU21D;61102;51.956;5.878;2023-05-10T08:47:17;19.92;65.80
72952;HTU21D;61102;51.956;5.878;2023-05-10T08:49:47;19.88;65.44
72952;HTU21D;61102;51.956;5.878;2023-05-10T08:52:17;19.86;65.18
72952;HTU21D;61102;51.956;5.878;2023-05-10T08:54:44;19.85;65.75
72952;HTU21D;61102;51.956;5.878;2023-05-10T08:57:10;19.80;65.21
72952;HTU21D;61102;51.956;5.878;2023-05-10T08:59:36;19.86;65.65
72952;HTU21D;61102;51.956;5.878;2023-05-10T09:02:05;20.01;65.62
72952;HTU21D;61102;51.956;5.878;2023-05-10T09:04:32;20.21;66.14
72952;HTU21D;61102;51.956;5.878;2023-05-10T09:06:58;20.43;65.32
72952;HTU21D;61102;51.956;5.878;2023-05-10T09:09:25;20.58;65.71
72952;HTU21D;61102;51.956;5.878;2023-05-10T09:11:53;20.75;65.72
72952;HTU21D;61102;51.956;5.878;2023-05-10T09:14:19;20.95;65.75
72952;HTU21D;61102;51.956;5.878;2023-05-10T09:16:46;21.06;64.92
72952;HTU21D;61102;51.956;5.878;2023-05-10T09:19:13;21.06;63.96
72952;HTU21D;61102;51.956;5.878;2023-05-10T09:21:39;20.99;63.42
72952;HTU21D;61102;51.956;5.878;2023-05-10T09:24:07;20.85;63.84
72952;HTU21D;61102;51.956;5.878;2023-05-10T09:26:35;20.88;64.27
72952;HTU21D;61102;51.956;5.878;2023-05-10T09:29:02;20.99;64.03
72952;HTU21D;61102;51.956;5.878;2023-05-10T09:31:47;21.14;64.17
72952;HTU21D;61102;51.956;5.878;2023-05-10T09:34:20;21.27;63.31
72952;HTU21D;61102;51.956;5.878;2023-05-10T09:36:55;21.34;63.80
72952;HTU21D;61102;51.956;5.878;2023-05-10T09:39:34;21.44;63.27
72952;HTU21D;61102;51.956;5.878;2023-05-10T09:42:06;21.44;62.99
72952;HTU21D;61102;51.956;5.878;2023-05-10T09:44:33;21.50;62.45
72952;HTU21D;61102;51.956;5.878;2023-05-10T09:47:03;21.58;63.13
72952;HTU21D;61102;51.956;5.878;2023-05-10T09:49:30;21.57;60.93
72952;HTU21D;61102;51.956;5.878;2023-05-10T09:52:01;21.53;61.07
72952;HTU21D;61102;51.956;5.878;2023-05-10T09:54:28;21.44;60.63
72952;HTU21D;61102;51.956;5.878;2023-05-10T09:56:54;21.36;61.05
72952;HTU21D;61102;51.956;5.878;2023-05-10T09:59:27;21.31;60.97
72952;HTU21D;61102;51.956;5.878;2023-05-10T10:01:57;21.23;60.87
72952;HTU21D;61102;51.956;5.878;2023-05-10T10:04:23;21.24;61.12
72952;HTU21D;61102;51.956;5.878;2023-05-10T10:07:03;21.28;61.45
72952;HTU21D;61102;51.956;5.878;2023-05-10T10:09:34;21.30;61.35
72952;HTU21D;61102;51.956;5.878;2023-05-10T10:12:02;21.32;61.68
72952;HTU21D;61102;51.956;5.878;2023-05-10T10:14:36;21.25;61.15
72952;HTU21D;61102;51.956;5.878;2023-05-10T10:17:02;21.32;61.00
72952;HTU21D;61102;51.956;5.878;2023-05-10T10:19:30;21.33;60.56
72952;HTU21D;61102;51.956;5.878;2023-05-10T10:21:58;21.42;60.57
72952;HTU21D;61102;51.956;5.878;2023-05-10T10:24:26;21.51;60.30
72952;HTU21D;61102;51.956;5.878;2023-05-10T10:26:55;21.58;58.84
72952;HTU21D;61102;51.956;5.878;2023-05-10T10:29:36;21.69;58.96
72952;HTU21D;61102;51.956;5.878;2023-05-10T10:32:16;21.69;54.42
72952;HTU21D;61102;51.956;5.878;2023-05-10T10:34:47;21.43;55.58
72952;HTU21D;61102;51.956;5.878;2023-05-10T10:37:13;21.19;54.06
72952;HTU21D;61102;51.956;5.878;2023-05-10T10:39:40;20.92;53.89
72952;HTU21D;61102;51.956;5.878;2023-05-10T10:42:06;20.69;54.76
72952;HTU21D;61102;51.956;5.878;2023-05-10T10:50:01;20.35;55.30
72952;HTU21D;61102;51.956;5.878;2023-05-10T10:55:13;20.51;55.83
72952;HTU21D;61102;51.956;5.878;2023-05-10T10:57:45;20.65;55.75
72952;HTU21D;61102;51.956;5.878;2023-05-10T11:02:59;21.11;55.75
72952;HTU21D;61102;51.956;5.878;2023-05-10T11:05:45;21.43;55.17
72952;HTU21D;61102;51.956;5.878;2023-05-10T11:08:17;21.45;54.12
72952;HTU21D;61102;51.956;5.878;2023-05-10T11:11:04;21.57;54.27
72952;HTU21D;61102;51.956;5.878;2023-05-10T11:16:35;21.74;54.76
72952;HTU21D;61102;51.956;5.878;2023-05-10T11:19:11;21.89;54.91
72952;HTU21D;61102;51.956;5.878;2023-05-10T11:22:11;22.13;54.88
72952;HTU21D;61102;51.956;5.878;2023-05-10T11:24:38;22.32;54.91
72952;HTU21D;61102;51.956;5.878;2023-05-10T11:27:05;22.25;54.28
72952;HTU21D;61102;51.956;5.878;2023-05-10T11:29:32;22.26;53.85
72952;HTU21D;61102;51.956;5.878;2023-05-10T11:31:59;22.48;53.91
72952;HTU21D;61102;51.956;5.878;2023-05-10T11:34:26;22.71;53.07
72952;HTU21D;61102;51.956;5.878;2023-05-10T11:36:54;22.84;52.22
72952;HTU21D;61102;51.956;5.878;2023-05-10T11:39:21;22.88;52.13
72952;HTU21D;61102;51.956;5.878;2023-05-10T11:41:51;22.93;52.24
72952;HTU21D;61102;51.956;5.878;2023-05-10T11:44:20;22.98;52.04
72952;HTU21D;61102;51.956;5.878;2023-05-10T11:46:46;23.13;51.58
72952;HTU21D;61102;51.956;5.878;2023-05-10T11:49:12;23.28;51.25
72952;HTU21D;61102;51.956;5.878;2023-05-10T11:51:39;23.43;51.56
72952;HTU21D;61102;51.956;5.878;2023-05-10T11:54:07;23.51;50.52
72952;HTU21D;61102;51.956;5.878;2023-05-10T11:56:40;23.56;50.06
72952;HTU21D;61102;51.956;5.878;2023-05-10T11:59:07;23.60;49.64
72952;HTU21D;61102;51.956;5.878;2023-05-10T12:01:34;23.69;50.19
72952;HTU21D;61102;51.956;5.878;2023-05-10T12:04:01;23.75;50.14
72952;HTU21D;61102;51.956;5.878;2023-05-10T12:06:29;23.92;49.93
72952;HTU21D;61102;51.956;5.878;2023-05-10T12:08:57;24.10;49.17
72952;HTU21D;61102;51.956;5.878;2023-05-10T12:11:28;24.18;47.83
72952;HTU21D;61102;51.956;5.878;2023-05-10T12:13:55;24.19;47.54
72952;HTU21D;61102;51.956;5.878;2023-05-10T12:16:24;24.27;47.83
72952;HTU21D;61102;51.956;5.878;2023-05-10T12:18:57;24.46;48.02
72952;HTU21D;61102;51.956;5.878;2023-05-10T12:21:24;24.55;47.75
72952;HTU21D;61102;51.956;5.878;2023-05-10T12:23:51;24.63;48.05
72952;HTU21D;61102;51.956;5.878;2023-05-10T12:26:20;24.64;47.21
72952;HTU21D;61102;51.956;5.878;2023-05-10T12:28:50;24.56;47.01
72952;HTU21D;61102;51.956;5.878;2023-05-10T12:31:16;24.49;46.88
72952;HTU21D;61102;51.956;5.878;2023-05-10T12:33:43;24.51;47.58
72952;HTU21D;61102;51.956;5.878;2023-05-10T12:36:12;24.51;47.14
72952;HTU21D;61102;51.956;5.878;2023-05-10T12:38:42;24.47;47.38
72952;HTU21D;61102;51.956;5.878;2023-05-10T12:41:12;24.53;47.40
72952;HTU21D;61102;51.956;5.878;2023-05-10T12:43:39;24.57;46.92
72952;HTU21D;61102;51.956;5.878;2023-05-10T12:46:06;24.94;45.66
72952;HTU21D;61102;51.956;5.878;2023-05-10T12:48:33;24.57;46.12
72952;HTU21D;61102;51.956;5.878;2023-05-10T12:51:03;24.43;46.66
72952;HTU21D;61102;51.956;5.878;2023-05-10T12:53:30;24.45;46.97
72952;HTU21D;61102;51.956;5.878;2023-05-10T12:55:57;24.47;47.25
72952;HTU21D;61102;51.956;5.878;2023-05-10T12:58:23;24.54;47.19
72952;HTU21D;61102;51.956;5.878;2023-05-10T13:00:50;24.60;46.64
72952;HTU21D;61102;51.956;5.878;2023-05-10T13:03:20;24.71;46.67
72952;HTU21D;61102;51.956;5.878;2023-05-10T13:05:46;24.82;46.35
72952;HTU21D;61102;51.956;5.878;2023-05-10T13:08:13;24.88;46.44
72952;HTU21D;61102;51.956;5.878;2023-05-10T13:10:39;24.95;46.38
72952;HTU21D;61102;51.956;5.878;2023-05-10T13:13:05;25.00;45.70
72952;HTU21D;61102;51.956;5.878;2023-05-10T13:15:31;24.94;46.22
72952;HTU21D;61102;51.956;5.878;2023-05-10T13:17:57;24.79;46.63
72952;HTU21D;61102;51.956;5.878;2023-05-10T13:20:24;24.69;45.90
72952;HTU21D;61102;51.956;5.878;2023-05-10T13:22:54;24.57;46.57
72952;HTU21D;61102;51.956;5.878;2023-05-10T13:25:20;24.48;47.02
72952;HTU21D;61102;51.956;5.878;2023-05-10T13:27:46;24.35;47.47
72952;HTU21D;61102;51.956;5.878;2023-05-10T13:30:13;24.23;47.76
72952;HTU21D;61102;51.956;5.878;2023-05-10T13:32:39;24.18;47.36
72952;HTU21D;61102;51.956;5.878;2023-05-10T13:35:05;24.10;47.01
72952;HTU21D;61102;51.956;5.878;2023-05-10T13:37:34;23.96;47.27
72952;HTU21D;61102;51.956;5.878;2023-05-10T13:40:06;23.72;48.33
72952;HTU21D;61102;51.956;5.878;2023-05-10T13:42:32;23.56;48.78
72952;HTU21D;61102;51.956;5.878;2023-05-10T13:45:00;23.47;49.05
72952;HTU21D;61102;51.956;5.878;2023-05-10T13:47:27;23.39;49.39
72952;HTU21D;61102;51.956;5.878;2023-05-10T13:49:53;23.30;49.44
72952;HTU21D;61102;51.956;5.878;2023-05-10T13:52:20;23.20;49.73
72952;HTU21D;61102;51.956;5.878;2023-05-10T13:54:47;23.06;49.92
72952;HTU21D;61102;51.956;5.878;2023-05-10T13:57:13;22.88;50.21
72952;HTU21D;61102;51.956;5.878;2023-05-10T13:59:39;22.83;50.44
72952;HTU21D;61102;51.956;5.878;2023-05-10T14:02:06;22.82;50.63
72952;HTU21D;61102;51.956;5.878;2023-05-10T14:04:32;22.76;50.44
72952;HTU21D;61102;51.956;5.878;2023-05-10T14:07:00;22.63;50.64
72952;HTU21D;61102;51.956;5.878;2023-05-10T14:09:26;22.54;49.80
72952;HTU21D;61102;51.956;5.878;2023-05-10T14:11:52;22.46;50.06
72952;HTU21D;61102;51.956;5.878;2023-05-10T14:14:18;22.44;50.03
72952;HTU21D;61102;51.956;5.878;2023-05-10T14:16:45;22.49;50.09
72952;HTU21D;61102;51.956;5.878;2023-05-10T14:19:11;22.50;50.34
72952;HTU21D;61102;51.956;5.878;2023-05-10T14:21:38;22.47;50.58
72952;HTU21D;61102;51.956;5.878;2023-05-10T14:24:04;22.38;51.09
72952;HTU21D;61102;51.956;5.878;2023-05-10T14:26:30;22.33;51.25
72952;HTU21D;61102;51.956;5.878;2023-05-10T14:28:57;22.31;51.61
72952;HTU21D;61102;51.956;5.878;2023-05-10T14:31:23;22.28;51.64
72952;HTU21D;61102;51.956;5.878;2023-05-10T14:33:51;22.29;51.75
72952;HTU21D;61102;51.956;5.878;2023-05-10T14:36:17;22.23;52.14
72952;HTU21D;61102;51.956;5.878;2023-05-10T14:38:44;22.16;51.87
72952;HTU21D;61102;51.956;5.878;2023-05-10T14:41:10;22.16;52.02
72952;HTU21D;61102;51.956;5.878;2023-05-10T14:43:40;22.12;52.03
72952;HTU21D;61102;51.956;5.878;2023-05-10T14:46:07;22.11;51.79
72952;HTU21D;61102;51.956;5.878;2023-05-10T14:48:33;22.09;51.54
72952;HTU21D;61102;51.956;5.878;2023-05-10T14:50:59;22.11;51.59
72952;HTU21D;61102;51.956;5.878;2023-05-10T14:53:25;22.11;51.46
72952;HTU21D;61102;51.956;5.878;2023-05-10T14:59:41;22.46;50.80
72952;HTU21D;61102;51.956;5.878;2023-05-10T15:02:08;22.57;50.83
72952;HTU21D;61102;51.956;5.878;2023-05-10T15:04:34;22.69;50.63
72952;HTU21D;61102;51.956;5.878;2023-05-10T15:07:00;22.76;50.16
72952;HTU21D;61102;51.956;5.878;2023-05-10T15:09:26;22.71;49.93
72952;HTU21D;61102;51.956;5.878;2023-05-10T15:11:54;22.57;48.86
72952;HTU21D;61102;51.956;5.878;2023-05-10T15:14:20;22.78;48.60
72952;HTU21D;61102;51.956;5.878;2023-05-10T15:16:49;22.33;49.51
72952;HTU21D;61102;51.956;5.878;2023-05-10T15:19:15;22.12;50.08
72952;HTU21D;61102;51.956;5.878;2023-05-10T15:21:42;21.99;50.66
72952;HTU21D;61102;51.956;5.878;2023-05-10T15:24:10;21.97;50.79
72952;HTU21D;61102;51.956;5.878;2023-05-10T15:26:36;21.95;50.95
72952;HTU21D;61102;51.956;5.878;2023-05-10T15:29:02;21.92;51.16
72952;HTU21D;61102;51.956;5.878;2023-05-10T15:31:28;21.94;51.28
72952;HTU21D;61102;51.956;5.878;2023-05-10T15:33:57;21.91;51.24
72952;HTU21D;61102;51.956;5.878;2023-05-10T15:36:27;21.93;51.28
72952;HTU21D;61102;51.956;5.878;2023-05-10T15:38:56;21.88;51.61
72952;HTU21D;61102;51.956;5.878;2023-05-10T15:41:22;21.93;51.48
72952;HTU21D;61102;51.956;5.878;2023-05-10T15:43:49;21.92;51.42
72952;HTU21D;61102;51.956;5.878;2023-05-10T15:46:16;21.92;51.40
72952;HTU21D;61102;51.956;5.878;2023-05-10T15:48:42;21.89;51.42
72952;HTU21D;61102;51.956;5.878;2023-05-10T15:51:08;21.92;51.27
72952;HTU21D;61102;51.956;5.878;2023-05-10T15:53:34;21.93;51.15
72952;HTU21D;61102;51.956;5.878;2023-05-10T15:56:00;21.95;51.04
72952;HTU21D;61102;51.956;5.878;2023-05-10T15:58:27;22.02;51.11